Search METAR Data

METAR Data for ENOL:

ENOL 190920Z 27003KT 9999 FEW025 17/10 Q1020 BECMG 34010KT